Time;durP1;ratioP1;P1;durP2;ratioP2;P2;SDS_P1;SDS_P2;PMS_P1;PMS_P2;Temp;Humidity;BMP_temperature;BMP_pressure;BME280_temperature;BME280_humidity;BME280_pressure;Samples;Min_cycle;Max_cycle;Signal;HPM_P1;HPM_P2
2022/08/14 00:00:45;;;;;;;7.07;5.70;;;21.00;1.00;;;;;;5023936;28;20553;-74
2022/08/14 00:03:28;;;;;;;5.77;5.20;;;21.10;1.00;;;;;;5015047;28;20462;-74
2022/08/14 00:05:57;;;;;;;9.20;5.73;;;21.00;1.00;;;;;;5013711;28;20425;-74
2022/08/14 00:08:22;;;;;;;10.13;5.70;;;21.00;1.00;;;;;;5028280;28;20451;-73
2022/08/14 00:11:10;;;;;;;7.50;5.80;;;21.00;1.00;;;;;;5019240;28;20867;-74
2022/08/14 00:13:42;;;;;;;6.90;5.83;;;21.10;1.00;;;;;;5018665;28;20181;-74
2022/08/14 00:16:13;;;;;;;8.60;5.33;;;21.10;1.00;;;;;;5018196;28;20447;-73
2022/08/14 00:18:39;;;;;;;6.30;5.60;;;21.10;1.00;;;;;;5023469;28;20982;-74
2022/08/14 00:21:05;;;;;;;6.77;6.00;;;21.10;1.00;;;;;;5028719;28;20955;-73
2022/08/14 00:23:31;;;;;;;6.90;6.03;;;21.10;1.00;;;;;;5043672;28;20434;-74
2022/08/14 00:26:04;;;;;;;9.00;6.33;;;21.10;1.00;;;;;;5031835;28;20923;-74
2022/08/14 00:28:30;;;;;;;7.87;6.40;;;21.10;1.00;;;;;;5031160;28;20196;-74
2022/08/14 00:30:58;;;;;;;7.33;6.13;;;21.10;1.00;;;;;;5015986;28;20417;-74
2022/08/14 00:36:58;;;;;;;9.00;7.27;;;21.10;1.00;;;;;;5013082;28;20865;-77
2022/08/14 00:39:28;;;;;;;6.90;6.20;;;21.10;1.00;;;;;;5013268;28;20451;-77
2022/08/14 00:42:05;;;;;;;32.60;6.73;;;21.00;1.00;;;;;;5013219;28;20844;-78
2022/08/14 00:44:40;;;;;;;8.17;6.90;;;21.00;1.00;;;;;;5014703;28;20492;-77
2022/08/14 00:47:17;;;;;;;11.80;6.77;;;20.90;1.00;;;;;;5026314;28;20870;-78
2022/08/14 00:49:44;;;;;;;8.30;6.53;;;20.90;1.00;;;;;;5026497;28;20424;-74
2022/08/14 00:52:15;;;;;;;9.63;6.90;;;20.90;1.00;;;;;;5024225;28;20424;-74
2022/08/14 00:54:42;;;;;;;7.40;6.67;;;20.80;1.00;;;;;;5016391;28;20456;-74
2022/08/14 00:57:11;;;;;;;7.90;6.50;;;20.80;1.00;;;;;;5035249;28;20478;-74
2022/08/14 00:59:36;;;;;;;9.90;6.13;;;20.80;1.00;;;;;;5029610;28;20436;-74
2022/08/14 01:02:04;;;;;;;9.70;6.80;;;20.80;1.00;;;;;;5034955;28;20466;-74
2022/08/14 01:04:33;;;;;;;10.90;6.50;;;20.80;1.00;;;;;;5036561;28;20189;-77
2022/08/14 01:07:20;;;;;;;8.40;7.40;;;20.70;1.00;;;;;;5022849;28;20821;-78
2022/08/14 01:09:48;;;;;;;9.53;6.00;;;20.70;1.00;;;;;;5034809;28;20518;-78
2022/08/14 01:12:16;;;;;;;7.53;6.73;;;20.70;1.00;;;;;;5036361;28;20576;-78
2022/08/14 01:14:42;;;;;;;9.03;7.03;;;20.60;1.00;;;;;;5029399;28;20428;-78
2022/08/14 01:17:08;;;;;;;7.47;6.67;;;20.60;1.00;;;;;;5033643;28;20430;-78
2022/08/14 01:22:18;;;;;;;9.43;6.90;;;20.50;1.00;;;;;;5026135;28;20964;-74
2022/08/14 01:24:45;;;;;;;9.40;6.87;;;20.50;1.00;;;;;;5021476;28;20497;-74
2022/08/14 01:27:17;;;;;;;12.77;7.33;;;20.40;1.00;;;;;;5016034;28;20249;-74
2022/08/14 01:29:48;;;;;;;11.93;6.93;;;20.30;1.00;;;;;;5022282;28;20923;-74
2022/08/14 01:32:18;;;;;;;8.53;7.20;;;20.30;1.00;;;;;;5020825;28;20493;-74
2022/08/14 01:34:53;;;;;;;8.50;7.60;;;20.30;1.00;;;;;;5016661;28;20453;-78
2022/08/14 01:37:23;;;;;;;9.13;7.77;;;20.20;1.00;;;;;;5017325;28;20771;-78
2022/08/14 01:39:53;;;;;;;11.63;7.30;;;20.20;1.00;;;;;;5025994;28;20430;-78
2022/08/14 01:42:23;;;;;;;7.70;6.90;;;20.20;1.00;;;;;;5030828;28;20557;-78
2022/08/14 01:44:56;;;;;;;8.60;7.70;;;20.10;1.00;;;;;;5033679;28;20906;-78
2022/08/14 01:47:24;;;;;;;9.37;7.40;;;20.00;1.00;;;;;;5032202;28;20515;-78
2022/08/14 01:49:53;;;;;;;10.17;7.33;;;20.00;1.00;;;;;;5019383;28;20463;-78
2022/08/14 01:52:49;;;;;;;8.40;7.40;;;20.00;1.00;;;;;;5031262;28;20464;-78
2022/08/14 01:55:35;;;;;;;10.27;7.47;;;19.90;1.00;;;;;;5013239;28;20451;-78
2022/08/14 01:58:14;;;;;;;9.60;7.47;;;19.90;1.00;;;;;;5025996;28;20493;-78
2022/08/14 02:00:41;;;;;;;9.63;8.07;;;19.80;1.00;;;;;;5032382;28;20460;-78
2022/08/14 02:03:06;;;;;;;9.07;8.17;;;19.80;1.00;;;;;;5015961;28;20435;-78
2022/08/14 02:05:35;;;;;;;9.33;8.03;;;19.80;1.00;;;;;;5025169;28;20434;-78
2022/08/14 02:08:17;;;;;;;9.70;7.93;;;19.80;1.00;;;;;;5018805;28;20192;-78
2022/08/14 02:10:43;;;;;;;9.00;8.10;;;19.70;1.00;;;;;;5021687;28;20427;-78
2022/08/14 02:13:22;;;;;;;9.60;8.17;;;19.70;1.00;;;;;;5025319;28;20456;-78
2022/08/14 02:15:54;;;;;;;9.47;8.47;;;19.60;1.00;;;;;;5033452;28;20768;-78
2022/08/14 02:18:23;;;;;;;10.90;8.20;;;19.60;1.00;;;;;;5018326;28;20977;-79
2022/08/14 02:20:53;;;;;;;13.03;8.50;;;19.60;1.00;;;;;;5013203;28;20906;-78
2022/08/14 02:23:23;;;;;;;14.00;8.97;;;19.60;1.00;;;;;;5027283;28;20416;-77
2022/08/14 02:25:52;;;;;;;13.93;9.00;;;19.50;1.00;;;;;;5030850;28;20423;-78
2022/08/14 02:28:23;;;;;;;10.80;9.23;;;19.50;1.00;;;;;;5027552;28;20468;-78
2022/08/14 02:31:07;;;;;;;11.70;8.97;;;19.40;1.00;;;;;;5029860;28;20450;-78
2022/08/14 02:33:52;;;;;;;11.27;9.57;;;19.40;1.00;;;;;;5020420;28;20951;-78
2022/08/14 02:36:18;;;;;;;13.00;9.87;;;19.40;1.00;;;;;;5021054;28;20413;-78
2022/08/14 02:38:47;;;;;;;15.13;10.43;;;19.30;1.00;;;;;;5028789;28;20417;-78
2022/08/14 02:41:31;;;;;;;15.03;9.77;;;19.30;1.00;;;;;;5034102;28;20191;-78
2022/08/14 02:44:11;;;;;;;14.23;10.00;;;19.20;1.00;;;;;;5028904;28;20420;-78
2022/08/14 02:46:47;;;;;;;14.67;9.30;;;19.20;1.00;;;;;;5034376;28;20433;-78
2022/08/14 02:49:16;;;;;;;11.40;9.20;;;19.20;1.00;;;;;;5021907;28;20901;-77
2022/08/14 02:51:54;;;;;;;11.93;9.57;;;20.50;1.00;;;;;;5025382;28;20819;-78
2022/08/14 02:54:29;;;;;;;18.33;9.90;;;19.20;1.00;;;;;;5023734;28;20445;-78
2022/08/14 02:56:59;;;;;;;11.20;8.90;;;19.30;1.00;;;;;;5031942;28;20917;-78
2022/08/14 02:59:28;;;;;;;19.80;9.50;;;19.20;1.00;;;;;;5027573;28;20438;-78
2022/08/14 03:01:56;;;;;;;14.53;10.00;;;19.20;1.00;;;;;;5025161;28;20538;-78
2022/08/14 03:04:25;;;;;;;13.90;9.27;;;19.20;1.00;;;;;;5029985;28;20408;-77
2022/08/14 03:06:53;;;;;;;12.80;9.30;;;19.20;1.00;;;;;;5022146;28;20423;-79
2022/08/14 03:09:23;;;;;;;13.47;9.10;;;19.20;1.00;;;;;;5032443;28;20382;-78
2022/08/14 03:11:48;;;;;;;12.67;10.00;;;19.20;1.00;;;;;;5022636;28;20394;-79
2022/08/14 03:14:14;;;;;;;13.00;9.80;;;19.20;1.00;;;;;;5028107;28;20426;-79
2022/08/14 03:16:40;;;;;;;13.57;9.80;;;19.20;1.00;;;;;;5026321;28;20509;-78
2022/08/14 03:19:08;;;;;;;15.90;10.50;;;19.10;1.00;;;;;;5014890;28;20189;-78
2022/08/14 03:21:35;;;;;;;12.80;10.13;;;19.10;1.00;;;;;;5026959;28;20508;-74
2022/08/14 03:26:28;;;;;;;16.20;9.43;;;19.00;1.00;;;;;;5014179;28;20708;-75
2022/08/14 03:29:06;;;;;;;12.93;9.70;;;19.00;1.00;;;;;;5014271;28;20427;-74
2022/08/14 03:31:41;;;;;;;12.57;9.43;;;19.00;1.00;;;;;;5026266;28;20213;-74
2022/08/14 03:34:11;;;;;;;15.00;9.80;;;19.00;1.00;;;;;;5023270;28;20417;-74
2022/08/14 03:36:42;;;;;;;17.97;10.23;;;19.00;1.00;;;;;;5019994;28;20510;-75
2022/08/14 03:39:10;;;;;;;12.03;9.37;;;18.90;1.00;;;;;;5027044;28;20411;-74
2022/08/14 03:41:41;;;;;;;11.90;9.77;;;18.90;1.00;;;;;;5027232;28;20450;-74
2022/08/14 03:44:06;;;;;;;11.10;9.43;;;18.90;1.00;;;;;;5014112;28;20420;-75
2022/08/14 03:46:36;;;;;;;12.40;9.77;;;18.90;1.00;;;;;;5026015;28;20429;-74
2022/08/14 03:49:03;;;;;;;15.40;10.33;;;18.80;1.00;;;;;;5025540;28;20410;-75
2022/08/14 03:51:36;;;;;;;17.03;10.27;;;18.80;1.00;;;;;;5028728;28;20413;-78
2022/08/14 03:54:23;;;;;;;16.47;10.27;;;18.80;1.00;;;;;;5026532;28;20409;-78
2022/08/14 03:56:48;;;;;;;12.93;10.03;;;18.80;1.00;;;;;;5016185;28;20461;-78
2022/08/14 03:59:17;;;;;;;16.97;11.30;;;18.80;1.00;;;;;;5028988;28;20384;-78
2022/08/14 04:01:48;;;;;;;16.60;10.20;;;18.70;1.00;;;;;;5023804;28;20199;-79
2022/08/14 04:04:17;;;;;;;14.50;10.87;;;18.70;1.00;;;;;;5026794;28;20422;-78
2022/08/14 04:06:43;;;;;;;13.83;11.03;;;18.60;1.00;;;;;;5016693;28;20434;-75
2022/08/14 04:09:10;;;;;;;13.00;10.10;;;18.60;1.00;;;;;;5017977;28;20439;-75
2022/08/14 04:11:37;;;;;;;12.70;10.30;;;18.60;1.00;;;;;;5027490;28;20408;-74
2022/08/14 04:14:04;;;;;;;12.30;10.20;;;18.50;1.00;;;;;;5018164;28;20424;-74
2022/08/14 04:16:46;;;;;;;12.10;10.30;;;18.50;1.00;;;;;;5013461;28;20775;-74
2022/08/14 04:19:18;;;;;;;11.77;10.00;;;18.50;1.00;;;;;;5013726;28;20840;-74
2022/08/14 04:22:22;;;;;;;11.90;9.03;;;18.40;1.00;;;;;;5026876;28;20460;-79
2022/08/14 04:25:18;;;;;;;12.00;9.33;;;18.40;1.00;;;;;;5029020;28;20405;-78
2022/08/14 04:28:10;;;;;;;14.53;11.80;;;18.40;1.00;;;;;;5021345;28;20376;-78
2022/08/14 04:30:47;;;;;;;17.33;10.80;;;18.40;1.00;;;;;;5028833;28;20407;-78
2022/08/14 04:33:13;;;;;;;13.97;9.57;;;18.40;1.00;;;;;;5026284;28;20409;-79
2022/08/14 04:35:41;;;;;;;17.07;9.60;;;18.40;1.00;;;;;;5035769;28;20719;-75
2022/08/14 04:43:46;;;;;;;15.93;10.50;;;18.40;1.00;;;;;;5019272;28;20773;-75
2022/08/14 04:46:20;;;;;;;14.50;9.43;;;18.50;1.00;;;;;;5032215;28;20438;-74
2022/08/14 04:48:47;;;;;;;12.57;9.90;;;18.50;1.00;;;;;;5030661;28;20402;-74
2022/08/14 04:51:16;;;;;;;15.13;10.00;;;18.50;1.00;;;;;;5017270;28;20512;-75
2022/08/14 04:53:48;;;;;;;13.90;10.10;;;18.60;1.00;;;;;;5027079;28;20404;-75
2022/08/14 04:56:21;;;;;;;16.33;10.03;;;18.60;1.00;;;;;;5019416;28;20483;-75
2022/08/14 04:58:49;;;;;;;11.37;9.33;;;18.70;1.00;;;;;;5031425;28;20922;-75
2022/08/14 05:01:17;;;;;;;10.00;9.00;;;18.60;1.00;;;;;;5032336;28;20439;-74
2022/08/14 05:03:53;;;;;;;13.13;10.20;;;18.70;1.00;;;;;;5022672;28;20778;-74
2022/08/14 05:06:23;;;;;;;11.87;9.90;;;18.70;1.00;;;;;;5035375;28;20637;-74
2022/08/14 05:08:50;;;;;;;12.13;10.40;;;18.80;1.00;;;;;;5025269;28;20440;-75
2022/08/14 05:11:18;;;;;;;13.90;10.37;;;18.80;1.00;;;;;;5018993;28;20442;-74
2022/08/14 05:13:45;;;;;;;18.97;10.20;;;18.90;1.00;;;;;;5028180;28;20789;-75
2022/08/14 05:16:12;;;;;;;18.00;10.83;;;18.90;1.00;;;;;;5018686;28;20434;-75
2022/08/14 05:18:37;;;;;;;17.30;9.90;;;18.90;1.00;;;;;;5024897;28;20414;-75
2022/08/14 05:21:07;;;;;;;15.83;10.30;;;19.00;1.00;;;;;;5019390;28;20909;-78
2022/08/14 05:23:38;;;;;;;12.13;9.90;;;19.10;1.00;;;;;;5023415;28;20774;-79
2022/08/14 05:26:11;;;;;;;13.60;10.10;;;19.20;1.00;;;;;;5014605;28;20406;-78
2022/08/14 05:28:47;;;;;;;13.50;9.43;;;19.30;1.00;;;;;;5016059;28;20501;-79
2022/08/14 05:31:17;;;;;;;12.07;9.90;;;19.40;1.00;;;;;;5034817;28;20425;-79
2022/08/14 05:33:48;;;;;;;12.37;10.30;;;19.50;1.00;;;;;;5020448;28;20780;-79
2022/08/14 05:36:14;;;;;;;11.50;9.70;;;19.50;1.00;;;;;;5023345;28;20422;-75
2022/08/14 05:38:43;;;;;;;13.90;10.17;;;19.60;1.00;;;;;;5022301;28;20423;-74
2022/08/14 05:41:11;;;;;;;13.37;9.57;;;19.70;1.00;;;;;;5027363;28;20719;-75
2022/08/14 05:43:42;;;;;;;11.30;9.87;;;19.80;1.00;;;;;;5028626;28;20435;-75
2022/08/14 05:46:14;;;;;;;12.97;9.73;;;19.90;1.00;;;;;;5024647;28;20407;-75
2022/08/14 05:48:48;;;;;;;11.10;9.93;;;20.00;1.00;;;;;;5022988;28;20400;-75
2022/08/14 05:51:17;;;;;;;13.57;9.83;;;20.10;1.00;;;;;;5016415;28;20435;-75
2022/08/14 05:53:48;;;;;;;12.57;10.53;;;20.20;1.00;;;;;;5019186;28;20726;-75
2022/08/14 05:56:14;;;;;;;11.93;10.67;;;20.30;1.00;;;;;;5026840;28;20493;-75
2022/08/14 05:58:40;;;;;;;10.43;9.13;;;20.50;1.00;;;;;;5033770;28;20432;-74
2022/08/14 06:01:08;;;;;;;14.47;10.10;;;20.60;1.00;;;;;;5023420;28;20739;-75
2022/08/14 06:03:35;;;;;;;12.87;10.17;;;20.80;1.00;;;;;;5028827;28;20194;-78
2022/08/14 06:06:28;;;;;;;13.70;10.40;;;20.90;1.00;;;;;;5022007;28;20843;-78
2022/08/14 06:08:59;;;;;;;15.33;10.10;;;21.00;1.00;;;;;;5024501;28;20415;-78
2022/08/14 06:11:41;;;;;;;11.07;9.90;;;21.10;1.00;;;;;;5021014;28;20958;-78
2022/08/14 06:14:16;;;;;;;14.00;9.53;;;21.30;1.00;;;;;;5023445;28;20408;-78
2022/08/14 06:16:58;;;;;;;13.70;9.90;;;21.40;1.00;;;;;;5028376;28;20413;-78
2022/08/14 06:19:29;;;;;;;13.37;10.20;;;21.50;1.00;;;;;;5028379;28;20425;-79
2022/08/14 06:21:59;;;;;;;16.53;10.80;;;21.60;1.00;;;;;;5034544;28;20448;-79
2022/08/14 06:24:24;;;;;;;12.20;9.70;;;21.80;1.00;;;;;;5027087;28;20908;-78
2022/08/14 06:26:53;;;;;;;11.70;9.33;;;21.90;1.00;;;;;;5023072;28;20426;-78
2022/08/14 06:29:35;;;;;;;12.63;9.93;;;22.00;1.00;;;;;;5030480;28;20537;-78
2022/08/14 06:32:10;;;;;;;11.60;10.23;;;22.10;1.00;;;;;;5021641;28;20441;-78
2022/08/14 06:34:41;;;;;;;11.47;10.27;;;22.20;1.00;;;;;;5021188;28;20791;-78
2022/08/14 06:37:06;;;;;;;12.87;9.90;;;22.50;1.00;;;;;;5030556;28;20935;-78
2022/08/14 06:39:35;;;;;;;11.00;9.80;;;22.50;1.00;;;;;;5015688;28;20410;-79
2022/08/14 06:42:11;;;;;;;11.33;9.60;;;22.60;1.00;;;;;;5013162;28;20569;-78
2022/08/14 06:45:22;;;;;;;13.13;10.70;;;22.70;1.00;;;;;;5020383;28;20406;-90
2022/08/14 06:51:10;;;;;;;14.23;9.47;;;23.00;1.00;;;;;;5034436;28;20450;-87
2022/08/14 06:54:16;;;;;;;12.83;9.43;;;23.10;1.00;;;;;;5022186;28;20494;-88
2022/08/14 07:00:10;;;;;;;13.03;9.23;;;23.40;1.00;;;;;;5033988;28;20466;-88
2022/08/14 07:12:05;;;;;;;9.50;8.50;;;23.90;1.00;;;;;;5030516;28;20415;-91
2022/08/14 07:14:58;;;;;;;14.37;9.07;;;24.00;1.00;;;;;;5014009;28;20788;-90
2022/08/14 07:24:08;;;;;;;9.33;8.23;;;24.40;1.00;;;;;;5048061;28;20959;-91
2022/08/14 07:26:34;;;;;;;10.07;8.97;;;24.50;1.00;;;;;;5053239;28;20416;-91
2022/08/14 07:29:34;;;;;;;10.47;8.53;;;24.60;1.00;;;;;;5033124;28;20696;-92
2022/08/14 07:35:22;;;;;;;16.03;8.50;;;24.80;1.00;;;;;;5024435;28;20395;-90
2022/08/14 07:37:52;;;;;;;11.23;7.93;;;24.90;1.00;;;;;;5034149;28;20509;-80
2022/08/14 07:40:40;;;;;;;13.90;8.70;;;25.00;1.00;;;;;;5031978;28;20705;-79
2022/08/14 07:43:06;;;;;;;10.73;8.50;;;25.10;1.00;;;;;;5029256;28;20446;-80
2022/08/14 07:45:41;;;;;;;10.20;8.57;;;25.20;1.00;;;;;;5022705;28;20437;-80
2022/08/14 07:48:17;;;;;;;10.20;8.60;;;25.30;1.00;;;;;;5022769;28;20446;-80
2022/08/14 07:51:04;;;;;;;10.33;8.57;;;25.40;1.00;;;;;;5015426;28;20438;-80
2022/08/14 07:53:35;;;;;;;12.70;8.30;;;25.50;1.00;;;;;;5028930;28;20441;-80
2022/08/14 07:56:01;;;;;;;14.17;9.00;;;25.60;1.00;;;;;;5031961;28;20532;-79
2022/08/14 07:58:26;;;;;;;11.23;8.87;;;25.70;1.00;;;;;;5025732;28;20525;-74
2022/08/14 08:00:56;;;;;;;10.07;9.03;;;25.80;1.00;;;;;;5030802;28;20943;-73
2022/08/14 08:03:26;;;;;;;9.27;7.80;;;25.90;1.00;;;;;;5028741;28;20661;-74
2022/08/14 08:05:53;;;;;;;9.50;8.50;;;25.90;1.00;;;;;;5017457;28;20873;-74
2022/08/14 08:08:19;;;;;;;9.40;8.13;;;26.00;1.00;;;;;;5029373;28;20494;-74
2022/08/14 08:10:48;;;;;;;8.90;8.10;;;26.10;1.00;;;;;;5025422;28;20892;-74
2022/08/14 08:13:20;;;;;;;12.00;8.10;;;26.20;1.00;;;;;;5023493;28;20462;-74
2022/08/14 08:15:52;;;;;;;9.47;8.30;;;26.30;1.00;;;;;;5026195;28;20501;-74
2022/08/14 08:18:19;;;;;;;9.20;8.30;;;26.40;1.00;;;;;;5017145;28;20417;-74
2022/08/14 08:20:47;;;;;;;11.47;8.40;;;26.50;1.00;;;;;;5017698;28;20472;-74
2022/08/14 08:23:18;;;;;;;8.93;8.03;;;26.70;1.00;;;;;;5022312;28;20411;-74
2022/08/14 08:25:49;;;;;;;8.93;8.10;;;26.80;1.00;;;;;;5015780;28;20811;-74
2022/08/14 08:28:20;;;;;;;8.80;7.77;;;26.80;1.00;;;;;;5029829;28;20473;-74
2022/08/14 08:30:53;;;;;;;8.93;8.03;;;26.90;1.00;;;;;;5029979;28;20401;-74
2022/08/14 08:33:20;;;;;;;8.20;7.37;;;27.00;1.00;;;;;;5017306;28;20511;-74
2022/08/14 08:35:47;;;;;;;8.73;7.77;;;27.10;1.00;;;;;;5022714;28;20752;-75
2022/08/14 08:38:21;;;;;;;9.00;8.03;;;27.20;1.00;;;;;;5017754;28;20466;-75
2022/08/14 08:41:00;;;;;;;8.10;7.30;;;27.30;1.00;;;;;;5018798;28;20938;-80
2022/08/14 08:43:34;;;;;;;8.33;7.00;;;27.40;1.00;;;;;;5026399;28;20419;-81
2022/08/14 08:46:10;;;;;;;11.80;7.93;;;27.50;1.00;;;;;;5017796;28;20446;-81
2022/08/14 08:48:53;;;;;;;11.00;7.40;;;27.60;1.00;;;;;;5023785;28;20457;-81
2022/08/14 08:51:39;;;;;;;10.50;8.10;;;27.70;1.00;;;;;;5023100;28;20845;-80
2022/08/14 08:54:52;;;;;;;11.43;8.27;;;27.70;1.00;;;;;;5028518;28;20424;-81
2022/08/14 08:57:38;;;;;;;8.13;7.30;;;27.70;1.00;;;;;;5016981;28;20537;-81
2022/08/14 09:00:23;;;;;;;7.70;7.00;;;27.90;1.00;;;;;;5032458;28;20451;-81
2022/08/14 09:03:09;;;;;;;11.90;7.03;;;28.00;1.00;;;;;;5024689;28;20551;-80
2022/08/14 09:06:07;;;;;;;7.80;6.57;;;28.20;1.00;;;;;;5033765;28;20439;-80
2022/08/14 09:08:36;;;;;;;7.80;7.10;;;28.30;1.00;;;;;;5032755;28;20453;-80
2022/08/14 09:11:08;;;;;;;8.23;7.10;;;28.40;1.00;;;;;;5030283;28;20427;-74
2022/08/14 09:13:34;;;;;;;8.80;7.50;;;28.50;1.00;;;;;;5027495;28;20426;-73
2022/08/14 09:16:01;;;;;;;8.57;7.77;;;28.60;1.00;;;;;;5018668;28;20427;-74
2022/08/14 09:18:27;;;;;;;8.83;6.87;;;28.70;1.00;;;;;;5032204;28;20450;-74
2022/08/14 09:20:55;;;;;;;7.70;7.00;;;28.70;1.00;;;;;;5032082;28;20984;-73
2022/08/14 09:23:22;;;;;;;7.30;6.70;;;28.80;1.00;;;;;;5027432;28;20518;-75
2022/08/14 09:25:53;;;;;;;8.30;6.67;;;28.90;1.00;;;;;;5022896;28;20438;-75
2022/08/14 09:28:29;;;;;;;8.87;7.37;;;28.90;1.00;;;;;;5022459;28;20429;-75
2022/08/14 09:31:05;;;;;;;9.20;7.03;;;29.00;1.00;;;;;;5019980;28;20458;-75
2022/08/14 09:34:02;;;;;;;8.13;7.00;;;29.10;1.00;;;;;;5026810;28;20454;-73
2022/08/14 09:36:38;;;;;;;9.03;6.70;;;29.20;1.00;;;;;;5032251;28;20436;-73
2022/08/14 09:39:08;;;;;;;10.87;6.90;;;29.30;1.00;;;;;;5032084;28;20446;-73
2022/08/14 09:42:06;;;;;;;10.20;7.20;;;29.50;1.00;;;;;;5033260;28;20515;-80
2022/08/14 09:45:04;;;;;;;7.43;6.73;;;29.60;1.00;;;;;;5016250;28;20419;-80
2022/08/14 09:47:42;;;;;;;7.03;6.07;;;29.70;1.00;;;;;;5019937;28;20428;-80
2022/08/14 09:50:43;;;;;;;7.27;6.53;;;29.80;1.00;;;;;;5023059;28;20465;-80
2022/08/14 09:53:09;;;;;;;6.57;5.97;;;29.90;1.00;;;;;;5023547;28;20515;-80
2022/08/14 09:55:36;;;;;;;6.13;5.57;;;30.00;1.00;;;;;;5026357;28;20500;-74
2022/08/14 09:58:15;;;;;;;6.13;5.53;;;30.10;1.00;;;;;;5017552;28;20435;-74
2022/08/14 10:00:43;;;;;;;8.07;5.30;;;30.30;1.00;;;;;;5025832;28;20476;-74
2022/08/14 10:03:08;;;;;;;6.20;5.60;;;30.40;1.00;;;;;;5018734;28;20438;-73
2022/08/14 10:05:36;;;;;;;5.83;5.33;;;30.50;1.00;;;;;;5024912;28;20415;-74
2022/08/14 10:08:03;;;;;;;7.80;5.70;;;30.50;1.00;;;;;;5014261;28;20176;-74
2022/08/14 10:10:31;;;;;;;5.50;5.10;;;30.60;1.00;;;;;;5017711;28;20506;-74
2022/08/14 10:12:58;;;;;;;6.93;6.23;;;30.70;1.00;;;;;;5017474;28;20418;-74
2022/08/14 10:15:25;;;;;;;11.60;5.83;;;30.70;1.00;;;;;;5014319;28;20461;-74
2022/08/14 10:18:13;;;;;;;6.33;5.77;;;30.80;1.00;;;;;;5013803;28;20418;-74
2022/08/14 10:20:59;;;;;;;5.97;5.37;;;30.90;1.00;;;;;;5023421;28;20418;-74
2022/08/14 10:23:28;;;;;;;7.13;5.80;;;30.90;1.00;;;;;;5014512;28;20419;-74
2022/08/14 10:26:03;;;;;;;5.87;5.47;;;30.90;1.00;;;;;;5017237;28;20431;-79
2022/08/14 10:28:47;;;;;;;6.83;5.70;;;31.00;1.00;;;;;;5014090;28;20750;-80
2022/08/14 10:31:33;;;;;;;5.97;5.43;;;31.00;1.00;;;;;;5020618;28;20747;-80
2022/08/14 10:34:05;;;;;;;6.53;5.93;;;31.10;1.00;;;;;;5033404;28;20410;-80
2022/08/14 10:36:40;;;;;;;13.83;5.60;;;31.20;1.00;;;;;;5029819;28;20416;-80
2022/08/14 10:39:20;;;;;;;5.17;4.73;;;31.30;1.00;;;;;;5013761;28;20497;-80
2022/08/14 10:41:46;;;;;;;8.03;5.27;;;31.50;1.00;;;;;;5013739;28;20539;-80
2022/08/14 10:44:15;;;;;;;5.87;4.37;;;31.40;1.00;;;;;;5028845;28;20846;-79
2022/08/14 10:46:51;;;;;;;5.00;4.60;;;31.60;1.00;;;;;;5013253;28;20892;-79
2022/08/14 10:49:25;;;;;;;5.30;4.70;;;31.60;1.00;;;;;;5026888;28;20444;-73
2022/08/14 10:52:08;;;;;;;5.17;4.50;;;31.70;1.00;;;;;;5017717;28;20432;-72
2022/08/14 10:54:43;;;;;;;5.17;4.33;;;31.80;1.00;;;;;;5018907;28;20485;-73
2022/08/14 10:57:14;;;;;;;4.10;3.80;;;31.90;1.00;;;;;;5026952;28;20453;-81
2022/08/14 10:59:54;;;;;;;4.67;4.23;;;32.10;1.00;;;;;;5022961;28;20846;-81
2022/08/14 11:02:32;;;;;;;4.17;3.63;;;32.20;1.00;;;;;;5019307;28;20476;-81
2022/08/14 11:05:13;;;;;;;4.03;3.73;;;32.20;1.00;;;;;;5018043;28;20431;-89
2022/08/14 11:07:40;;;;;;;4.00;3.80;;;31.90;1.00;;;;;;5023426;28;20528;-79
2022/08/14 11:10:08;;;;;;;4.83;4.07;;;31.90;1.00;;;;;;5021720;28;20509;-79
2022/08/14 11:12:46;;;;;;;4.40;4.00;;;31.90;1.00;;;;;;5017889;28;20424;-73
2022/08/14 11:15:15;;;;;;;4.03;3.50;;;31.90;1.00;;;;;;5017245;28;20415;-73
2022/08/14 11:17:41;;;;;;;8.60;3.67;;;32.10;1.00;;;;;;5024913;28;20436;-73
2022/08/14 11:20:08;;;;;;;5.63;3.60;;;32.20;1.00;;;;;;5026799;28;20522;-73
2022/08/14 11:22:38;;;;;;;5.27;3.27;;;32.30;1.00;;;;;;5013474;28;20459;-73
2022/08/14 11:25:06;;;;;;;3.80;3.50;;;32.40;1.00;;;;;;5027430;28;20438;-73
2022/08/14 11:27:33;;;;;;;5.63;3.30;;;32.50;1.00;;;;;;5019704;28;20418;-79
2022/08/14 11:30:05;;;;;;;3.73;3.53;;;32.70;1.00;;;;;;5031685;28;20423;-81
2022/08/14 11:32:37;;;;;;;8.40;3.83;;;32.60;1.00;;;;;;5018644;28;20805;-80
2022/08/14 11:35:04;;;;;;;3.77;3.53;;;32.60;1.00;;;;;;5018328;28;20411;-80
2022/08/14 11:37:32;;;;;;;3.60;3.30;;;32.60;1.00;;;;;;5015671;28;20471;-80
2022/08/14 11:40:33;;;;;;;4.00;3.70;;;32.80;1.00;;;;;;5019196;28;20511;-80
2022/08/14 11:43:17;;;;;;;5.40;3.57;;;32.90;1.00;;;;;;5013406;28;20479;-80
2022/08/14 11:45:47;;;;;;;3.57;3.30;;;32.90;1.00;;;;;;5019772;28;20542;-80
2022/08/14 11:48:44;;;;;;;4.50;3.37;;;32.90;1.00;;;;;;5026702;28;20522;-80
2022/08/14 11:51:26;;;;;;;4.07;3.20;;;32.90;1.00;;;;;;5030324;28;20558;-80
2022/08/14 11:54:03;;;;;;;3.70;3.40;;;33.00;1.00;;;;;;5024475;28;20420;-79
2022/08/14 11:56:51;;;;;;;4.47;3.50;;;33.10;1.00;;;;;;5023258;28;20454;-79
2022/08/14 11:59:35;;;;;;;4.00;3.57;;;33.20;1.00;;;;;;5027495;28;20491;-78
2022/08/14 12:02:17;;;;;;;3.93;3.60;;;33.30;1.00;;;;;;5026299;28;20981;-79
2022/08/14 12:04:51;;;;;;;4.03;3.43;;;33.40;1.00;;;;;;5017538;28;20435;-79
2022/08/14 12:07:23;;;;;;;3.10;2.90;;;33.40;1.00;;;;;;5017516;28;20424;-79
2022/08/14 12:10:05;;;;;;;8.53;3.00;;;33.50;1.00;;;;;;5021367;28;20511;-79
2022/08/14 12:12:37;;;;;;;5.03;2.77;;;33.60;1.00;;;;;;5020502;28;20435;-79
2022/08/14 12:15:05;;;;;;;3.20;3.00;;;33.80;1.00;;;;;;5027369;28;20436;-79
2022/08/14 12:17:47;;;;;;;3.10;2.90;;;33.80;1.00;;;;;;5014776;28;20416;-80
2022/08/14 12:20:31;;;;;;;2.90;2.70;;;33.80;1.00;;;;;;5020609;28;20477;-80
2022/08/14 12:23:23;;;;;;;3.50;3.20;;;33.70;1.00;;;;;;5016780;28;20490;-80
2022/08/14 12:26:12;;;;;;;3.50;3.20;;;33.70;1.00;;;;;;5026847;28;20519;-80
2022/08/14 12:28:41;;;;;;;3.63;3.37;;;33.80;1.00;;;;;;5015659;28;20419;-79
2022/08/14 12:31:19;;;;;;;3.97;3.13;;;33.80;1.00;;;;;;5023927;28;20883;-79
2022/08/14 12:33:59;;;;;;;3.20;3.00;;;33.80;1.00;;;;;;5021253;28;20415;-79
2022/08/14 12:36:36;;;;;;;3.17;2.97;;;33.90;1.00;;;;;;5019076;28;20471;-79
2022/08/14 12:39:22;;;;;;;3.13;2.93;;;33.90;1.00;;;;;;5020341;28;20411;-79
2022/08/14 12:42:05;;;;;;;3.40;3.03;;;34.00;1.00;;;;;;5026099;28;20482;-79
2022/08/14 12:44:42;;;;;;;3.60;2.93;;;34.00;1.00;;;;;;5022636;28;20423;-79
2022/08/14 12:47:16;;;;;;;3.23;3.03;;;34.00;1.00;;;;;;5019397;28;20415;-78
2022/08/14 12:49:53;;;;;;;3.00;2.80;;;34.20;1.00;;;;;;5018327;28;20517;-78
2022/08/14 12:52:39;;;;;;;3.63;3.33;;;34.30;1.00;;;;;;5023567;28;20425;-78
2022/08/14 12:55:14;;;;;;;3.07;2.87;;;34.50;1.00;;;;;;5028290;28;20902;-78
2022/08/14 12:57:44;;;;;;;3.77;3.27;;;34.70;1.00;;;;;;5023105;28;20414;-78
2022/08/14 13:00:28;;;;;;;3.43;3.20;;;34.70;1.00;;;;;;5025203;28;20566;-79
2022/08/14 13:02:55;;;;;;;3.10;3.00;;;34.70;1.00;;;;;;5018057;28;20456;-79
2022/08/14 13:05:26;;;;;;;3.30;3.10;;;34.80;1.00;;;;;;5015613;28;20432;-79
2022/08/14 13:07:54;;;;;;;5.23;2.90;;;34.90;1.00;;;;;;5016481;28;20993;-80
2022/08/14 13:10:20;;;;;;;3.30;3.10;;;35.00;1.00;;;;;;5017933;28;20414;-81
2022/08/14 13:12:48;;;;;;;3.17;2.90;;;35.10;1.00;;;;;;5016501;28;20428;-78
2022/08/14 13:15:16;;;;;;;3.50;3.30;;;35.00;1.00;;;;;;5029348;28;20914;-78
2022/08/14 13:17:50;;;;;;;3.40;3.17;;;34.90;1.00;;;;;;5026000;28;20445;-79
2022/08/14 13:20:23;;;;;;;5.90;3.20;;;35.00;1.00;;;;;;5035978;28;20411;-79
2022/08/14 13:22:49;;;;;;;4.60;3.60;;;35.20;1.00;;;;;;5025208;28;20487;-78
2022/08/14 13:25:26;;;;;;;4.60;3.50;;;35.30;1.00;;;;;;5021512;28;20459;-83
2022/08/14 13:27:59;;;;;;;4.33;3.00;;;35.30;1.00;;;;;;5018668;28;20879;-79
2022/08/14 13:30:26;;;;;;;3.23;2.80;;;35.20;1.00;;;;;;5029946;28;20427;-78
2022/08/14 13:33:01;;;;;;;3.47;3.27;;;35.20;1.00;;;;;;5016714;28;20856;-79
2022/08/14 13:35:29;;;;;;;4.00;3.70;;;35.30;1.00;;;;;;5014535;28;20503;-79
2022/08/14 13:38:00;;;;;;;3.80;3.50;;;35.30;1.00;;;;;;5019983;28;21026;-79
2022/08/14 13:40:51;;;;;;;3.10;3.00;;;35.40;1.00;;;;;;5029493;28;20438;-78
2022/08/14 13:43:17;;;;;;;3.30;3.10;;;35.50;1.00;;;;;;5035056;28;20422;-79
2022/08/14 13:45:46;;;;;;;3.47;3.17;;;35.60;1.00;;;;;;5034612;28;20427;-75
2022/08/14 13:48:14;;;;;;;3.60;3.40;;;35.60;1.00;;;;;;5023793;28;20450;-74
2022/08/14 13:50:43;;;;;;;3.40;3.20;;;35.50;1.00;;;;;;5024404;28;20415;-74
2022/08/14 13:53:13;;;;;;;4.17;3.87;;;35.60;1.00;;;;;;5020112;28;20940;-74
2022/08/14 13:55:41;;;;;;;4.60;4.20;;;35.80;1.00;;;;;;5021658;28;20459;-74
2022/08/14 13:58:08;;;;;;;4.07;3.77;;;35.90;1.00;;;;;;5016556;28;20483;-77
2022/08/14 14:00:37;;;;;;;5.73;3.93;;;36.00;1.00;;;;;;5031623;28;20783;-77
2022/08/14 14:03:06;;;;;;;4.10;3.80;;;36.20;1.00;;;;;;5023866;28;20463;-77